createdAt,value
2023-02-14T00:00:02.590Z,5.59
2023-02-14T00:02:30.337Z,5.64
2023-02-14T00:04:59.522Z,5.69
2023-02-14T00:07:27.196Z,5.70
2023-02-14T00:09:54.809Z,5.73
2023-02-14T00:12:22.458Z,5.74
2023-02-14T00:15:07.624Z,5.77
2023-02-14T00:17:35.274Z,5.78
2023-02-14T00:20:05.138Z,5.79
2023-02-14T00:22:32.908Z,5.79
2023-02-14T00:25:00.534Z,5.79
2023-02-14T00:27:28.155Z,5.79
2023-02-14T00:29:58.183Z,5.79
2023-02-14T00:32:25.771Z,5.79
2023-02-14T00:34:53.414Z,5.78
2023-02-14T00:37:22.775Z,5.78
2023-02-14T00:39:50.429Z,5.78
2023-02-14T00:42:18.549Z,5.77
2023-02-14T00:44:46.215Z,5.74
2023-02-14T00:47:13.778Z,5.72
2023-02-14T00:49:41.386Z,5.71
2023-02-14T00:52:09.092Z,5.65
2023-02-14T00:54:38.030Z,5.65
2023-02-14T00:57:05.605Z,5.68
2023-02-14T00:59:33.342Z,5.71
2023-02-14T01:02:01.091Z,5.67
2023-02-14T01:04:28.808Z,5.67
2023-02-14T01:06:56.426Z,5.70
2023-02-14T01:09:24.031Z,5.72
2023-02-14T01:11:53.003Z,5.74
2023-02-14T01:14:20.606Z,5.75
2023-02-14T01:16:48.248Z,5.75
2023-02-14T01:19:15.859Z,5.75
2023-02-14T01:21:43.502Z,5.73
2023-02-14T01:24:12.909Z,5.74
2023-02-14T01:26:40.677Z,5.74
2023-02-14T01:29:09.649Z,5.71
2023-02-14T01:31:37.588Z,5.71
2023-02-14T01:34:05.666Z,5.71
2023-02-14T01:36:36.056Z,5.71
2023-02-14T01:39:06.022Z,5.72
2023-02-14T01:41:35.648Z,5.72
2023-02-14T01:44:05.572Z,5.72
2023-02-14T01:46:36.564Z,5.69
2023-02-14T01:49:10.081Z,5.71
2023-02-14T01:51:42.052Z,5.70
2023-02-14T01:54:10.887Z,5.69
2023-02-14T01:56:42.832Z,5.69
2023-02-14T01:59:14.000Z,5.68
2023-02-14T02:01:43.771Z,5.66
2023-02-14T02:04:16.512Z,5.64
2023-02-14T02:06:47.828Z,5.63
2023-02-14T02:09:21.105Z,5.61
2023-02-14T02:11:49.492Z,5.59
2023-02-14T02:14:19.003Z,5.57
2023-02-14T02:17:09.025Z,5.55
2023-02-14T02:20:07.997Z,5.56
2023-02-14T02:22:57.144Z,5.54
2023-02-14T02:25:43.141Z,5.45
2023-02-14T02:28:37.310Z,5.41
2023-02-14T02:31:21.008Z,5.38
2023-02-14T02:34:34.614Z,5.35
2023-02-14T02:37:20.848Z,5.36
2023-02-14T02:40:05.700Z,5.35
2023-02-14T02:42:43.735Z,5.34
2023-02-14T02:45:19.948Z,5.32
2023-02-14T02:47:56.062Z,5.34
2023-02-14T02:50:47.521Z,5.35
2023-02-14T02:53:24.088Z,5.35
2023-02-14T02:56:19.357Z,5.34
2023-02-14T02:58:52.080Z,5.34
2023-02-14T03:01:22.969Z,5.33
2023-02-14T03:04:10.411Z,5.36
2023-02-14T03:06:37.993Z,5.33
2023-02-14T03:09:52.643Z,5.34
2023-02-14T03:12:40.923Z,5.35
2023-02-14T03:15:18.247Z,5.36
2023-02-14T03:17:58.965Z,5.34
2023-02-14T03:20:36.071Z,5.34
2023-02-14T03:23:09.444Z,5.36
2023-02-14T03:25:45.019Z,5.36
2023-02-14T03:28:18.126Z,5.36
2023-02-14T03:30:53.261Z,5.32
2023-02-14T03:33:28.089Z,5.32
2023-02-14T03:36:02.917Z,5.32
2023-02-14T03:38:35.601Z,5.30
2023-02-14T03:41:08.803Z,5.26
2023-02-14T03:43:42.392Z,5.26
2023-02-14T03:46:14.641Z,5.27
2023-02-14T03:48:43.912Z,5.27
2023-02-14T03:51:14.837Z,5.27
2023-02-14T03:53:48.774Z,5.23
2023-02-14T03:56:24.051Z,5.21
2023-02-14T03:58:54.877Z,5.20
2023-02-14T04:01:25.866Z,5.18
2023-02-14T04:03:57.319Z,5.19
2023-02-14T04:06:25.496Z,5.17
2023-02-14T04:08:53.319Z,5.18
2023-02-14T04:11:24.501Z,5.15
2023-02-14T04:13:52.497Z,5.12
2023-02-14T04:16:20.232Z,5.08
2023-02-14T04:19:01.769Z,5.08
2023-02-14T04:21:29.336Z,5.03
2023-02-14T04:23:57.313Z,5.03
2023-02-14T04:26:26.261Z,5.05
2023-02-14T04:28:53.844Z,5.01
2023-02-14T04:31:21.910Z,4.99
2023-02-14T04:33:51.200Z,4.97
2023-02-14T04:36:18.904Z,4.90
2023-02-14T04:38:46.542Z,4.89
2023-02-14T04:41:14.228Z,4.89
2023-02-14T04:43:43.179Z,4.87
2023-02-14T04:46:10.817Z,4.86
2023-02-14T04:48:38.388Z,4.86
2023-02-14T04:51:07.017Z,4.86
2023-02-14T04:53:40.084Z,4.87
2023-02-14T04:56:08.666Z,4.87
2023-02-14T04:58:36.481Z,4.86
2023-02-14T05:01:05.544Z,4.85
2023-02-14T05:03:33.211Z,4.84
2023-02-14T05:06:00.844Z,4.83
2023-02-14T05:08:28.403Z,4.83
2023-02-14T05:10:56.078Z,4.84
2023-02-14T05:13:23.837Z,4.84
2023-02-14T05:15:51.425Z,4.87
2023-02-14T05:18:20.474Z,4.87
2023-02-14T05:20:50.470Z,4.83
2023-02-14T05:23:18.182Z,4.85
2023-02-14T05:25:46.271Z,4.85
2023-02-14T05:28:13.874Z,4.82
2023-02-14T05:30:42.123Z,4.81
2023-02-14T05:33:09.845Z,4.80
2023-02-14T05:35:39.085Z,4.78
2023-02-14T05:38:06.742Z,4.79
2023-02-14T05:40:34.649Z,4.78
2023-02-14T05:43:02.405Z,4.79
2023-02-14T05:45:30.222Z,4.80
2023-02-14T05:47:57.832Z,4.82
2023-02-14T05:50:25.377Z,4.82
2023-02-14T05:52:54.378Z,4.82
2023-02-14T05:55:22.143Z,4.83
2023-02-14T05:57:49.741Z,4.80
2023-02-14T06:00:19.019Z,4.79
2023-02-14T06:02:46.612Z,4.80
2023-02-14T06:05:14.865Z,4.82
2023-02-14T06:07:43.188Z,4.80
2023-02-14T06:10:12.749Z,4.78
2023-02-14T06:12:40.344Z,4.80
2023-02-14T06:15:08.651Z,4.82
2023-02-14T06:17:36.288Z,4.82
2023-02-14T06:20:03.928Z,4.82
2023-02-14T06:22:31.768Z,4.81
2023-02-14T06:24:59.436Z,4.81
2023-02-14T06:27:29.891Z,4.84
2023-02-14T06:29:57.641Z,4.85
2023-02-14T06:32:25.591Z,4.84
2023-02-14T06:34:53.259Z,4.86
2023-02-14T06:37:21.140Z,4.85
2023-02-14T06:39:48.760Z,4.81
2023-02-14T06:42:16.452Z,4.82
2023-02-14T06:44:45.387Z,4.78
2023-02-14T06:47:12.981Z,4.76
2023-02-14T06:49:40.697Z,4.78
2023-02-14T06:52:08.421Z,4.79
2023-02-14T06:54:35.967Z,4.80
2023-02-14T06:57:03.763Z,4.81
2023-02-14T06:59:31.372Z,4.81
2023-02-14T07:02:00.405Z,4.82
2023-02-14T07:04:28.368Z,4.81
2023-02-14T07:06:56.135Z,4.81
2023-02-14T07:09:24.245Z,4.81
2023-02-14T07:11:51.882Z,4.84
2023-02-14T07:14:19.472Z,4.88
2023-02-14T07:16:47.208Z,4.92
2023-02-14T07:19:16.547Z,4.94
2023-02-14T07:21:44.147Z,4.97
2023-02-14T07:24:11.892Z,4.95
2023-02-14T07:26:39.498Z,5.00
2023-02-14T07:29:07.151Z,5.03
2023-02-14T07:31:34.958Z,5.06
2023-02-14T07:34:02.671Z,5.10
2023-02-14T07:36:31.928Z,5.11
2023-02-14T07:38:59.628Z,5.13
2023-02-14T07:41:27.216Z,5.12
2023-02-14T07:43:54.820Z,5.16
2023-02-14T07:46:23.406Z,5.12
2023-02-14T07:48:51.960Z,5.14
2023-02-14T07:51:19.663Z,5.14
2023-02-14T07:53:48.812Z,5.19
2023-02-14T07:56:16.527Z,5.22
2023-02-14T07:58:44.138Z,5.21
2023-02-14T08:01:11.942Z,5.25
2023-02-14T08:03:39.632Z,5.32
2023-02-14T08:06:07.204Z,5.35
2023-02-14T08:08:34.771Z,5.39
2023-02-14T08:11:03.837Z,5.43
2023-02-14T08:13:30.795Z,5.47
2023-02-14T08:16:09.338Z,5.50
2023-02-14T08:18:38.849Z,5.49
2023-02-14T08:21:08.436Z,5.50
2023-02-14T08:23:36.756Z,5.55
2023-02-14T08:26:06.209Z,5.52
2023-02-14T08:28:34.910Z,5.46
2023-02-14T08:31:03.549Z,5.54
2023-02-14T08:33:31.324Z,5.54
2023-02-14T08:35:58.917Z,5.57
2023-02-14T08:38:26.530Z,5.59
2023-02-14T08:40:54.144Z,5.65
2023-02-14T08:43:23.149Z,5.69
2023-02-14T08:45:53.979Z,5.72
2023-02-14T08:48:23.421Z,5.77
2023-02-14T08:50:51.190Z,5.86
2023-02-14T08:53:18.922Z,5.97
2023-02-14T08:55:46.514Z,6.04
2023-02-14T08:58:14.322Z,6.09
2023-02-14T09:00:43.340Z,6.13
2023-02-14T09:03:11.516Z,6.11
2023-02-14T09:05:39.323Z,6.16
2023-02-14T09:08:07.644Z,6.29
2023-02-14T09:10:35.342Z,6.38
2023-02-14T09:13:03.020Z,6.45
2023-02-14T09:15:30.804Z,6.51
2023-02-14T09:17:59.842Z,6.55
2023-02-14T09:20:27.559Z,6.59
2023-02-14T09:22:56.679Z,6.65
2023-02-14T09:25:24.308Z,6.76
2023-02-14T09:27:51.872Z,6.75
2023-02-14T09:30:19.652Z,6.81
2023-02-14T09:32:47.382Z,6.88
2023-02-14T09:35:16.653Z,6.93
2023-02-14T09:38:01.741Z,6.85
2023-02-14T09:40:29.383Z,6.75
2023-02-14T09:43:06.179Z,6.90
2023-02-14T09:45:35.068Z,6.90
2023-02-14T09:48:07.468Z,7.04
2023-02-14T09:50:43.389Z,7.16
2023-02-14T09:53:22.673Z,7.17
2023-02-14T09:55:56.972Z,7.29
2023-02-14T09:58:32.272Z,7.34
2023-02-14T10:01:06.190Z,7.44
2023-02-14T10:04:07.118Z,7.51
2023-02-14T10:06:47.316Z,7.61
2023-02-14T10:09:26.623Z,7.68
2023-02-14T10:11:55.345Z,7.74
2023-02-14T10:14:26.971Z,7.85
2023-02-14T10:16:57.967Z,7.90
2023-02-14T10:19:29.667Z,7.99
2023-02-14T10:22:05.414Z,7.87
2023-02-14T10:24:38.358Z,7.77
2023-02-14T10:27:13.322Z,7.95
2023-02-14T10:29:43.178Z,8.09
2023-02-14T10:32:15.492Z,8.15
2023-02-14T10:34:47.864Z,8.31
2023-02-14T10:37:41.504Z,8.39
2023-02-14T10:40:42.712Z,8.44
2023-02-14T10:43:22.014Z,8.42
2023-02-14T10:46:00.200Z,8.52
2023-02-14T10:48:34.121Z,8.59
2023-02-14T10:51:05.882Z,8.67
2023-02-14T10:53:40.618Z,8.77
2023-02-14T10:56:18.460Z,8.79
2023-02-14T10:58:48.160Z,8.80
2023-02-14T11:01:18.680Z,8.78
2023-02-14T11:03:54.613Z,8.89
2023-02-14T11:06:22.402Z,9.00
2023-02-14T11:08:51.445Z,9.14
2023-02-14T11:11:25.734Z,9.19
2023-02-14T11:13:53.589Z,9.20
2023-02-14T11:16:30.858Z,9.24
2023-02-14T11:19:10.527Z,9.18
2023-02-14T11:21:39.329Z,9.13
2023-02-14T11:24:20.244Z,9.13
2023-02-14T11:26:49.676Z,9.22
2023-02-14T11:29:26.394Z,9.16
2023-02-14T11:31:54.674Z,9.27
2023-02-14T11:34:32.005Z,9.29
2023-02-14T11:37:00.272Z,9.38
2023-02-14T11:39:32.369Z,9.48
2023-02-14T11:42:04.187Z,9.52
2023-02-14T11:44:33.958Z,9.55
2023-02-14T11:47:18.087Z,9.65
2023-02-14T11:49:56.453Z,9.70
2023-02-14T11:52:26.706Z,9.79
2023-02-14T11:54:56.378Z,9.85
2023-02-14T11:57:28.255Z,9.93
2023-02-14T11:59:57.697Z,9.90
2023-02-14T12:02:30.195Z,9.96
2023-02-14T12:05:00.853Z,9.93
2023-02-14T12:07:31.846Z,9.82
2023-02-14T12:10:24.178Z,9.96
2023-02-14T12:12:57.929Z,10.00
2023-02-14T12:15:34.381Z,9.86
2023-02-14T12:18:29.768Z,9.82
2023-02-14T12:21:04.143Z,9.55
2023-02-14T12:23:40.108Z,9.67
2023-02-14T12:26:18.676Z,9.60
2023-02-14T12:28:52.754Z,9.55
2023-02-14T12:31:20.881Z,9.55
2023-02-14T12:33:50.515Z,9.62
2023-02-14T12:36:32.551Z,9.68
2023-02-14T12:39:10.284Z,9.58
2023-02-14T12:41:49.360Z,9.29
2023-02-14T12:44:26.961Z,9.50
2023-02-14T12:47:16.036Z,9.55
2023-02-14T12:50:14.965Z,9.64
2023-02-14T12:53:01.028Z,9.63
2023-02-14T12:55:42.436Z,9.66
2023-02-14T12:58:26.683Z,9.55
2023-02-14T13:01:07.400Z,9.49
2023-02-14T13:03:57.617Z,9.30
2023-02-14T13:06:30.361Z,9.19
2023-02-14T13:09:14.709Z,8.85
2023-02-14T13:11:55.425Z,8.82
2023-02-14T13:14:45.688Z,8.96
2023-02-14T13:17:21.771Z,8.77
2023-02-14T13:20:00.477Z,8.71
2023-02-14T13:22:31.367Z,8.64
2023-02-14T13:25:02.321Z,8.62
2023-02-14T13:27:34.047Z,8.50
2023-02-14T13:30:06.218Z,8.54
2023-02-14T13:32:39.984Z,8.59
2023-02-14T13:35:09.302Z,8.44
2023-02-14T13:37:38.158Z,8.33
2023-02-14T13:40:09.398Z,8.32
2023-02-14T13:42:53.637Z,8.26
2023-02-14T13:45:56.371Z,8.38
2023-02-14T13:48:27.433Z,8.34
2023-02-14T13:50:58.280Z,8.44
2023-02-14T13:53:35.750Z,8.28
2023-02-14T13:56:06.285Z,8.27
2023-02-14T13:58:34.517Z,8.32
2023-02-14T14:01:31.482Z,8.43
2023-02-14T14:04:02.331Z,8.16
2023-02-14T14:06:30.740Z,8.29
2023-02-14T14:08:58.577Z,8.11
2023-02-14T14:12:00.673Z,7.97
2023-02-14T14:14:36.125Z,8.04
2023-02-14T14:17:20.550Z,8.09
2023-02-14T14:19:48.737Z,8.02
2023-02-14T14:22:17.649Z,8.02
2023-02-14T14:25:04.087Z,7.82
2023-02-14T14:27:35.404Z,7.73
2023-02-14T14:30:06.045Z,7.71
2023-02-14T14:32:36.884Z,7.69
2023-02-14T14:35:08.188Z,7.68
2023-02-14T14:37:37.481Z,7.66
2023-02-14T14:40:08.146Z,7.65
2023-02-14T14:42:38.479Z,7.62
2023-02-14T14:45:10.400Z,7.61
2023-02-14T14:47:44.390Z,7.55
2023-02-14T14:50:18.493Z,7.37
2023-02-14T14:52:49.781Z,7.26
2023-02-14T14:55:21.231Z,7.25
2023-02-14T14:57:53.584Z,7.16
2023-02-14T15:00:28.661Z,7.18
2023-02-14T15:03:00.342Z,7.17
2023-02-14T15:05:30.340Z,7.05
2023-02-14T15:07:58.762Z,7.07
2023-02-14T15:10:30.058Z,7.02
2023-02-14T15:13:17.290Z,6.92
2023-02-14T15:15:50.942Z,6.81
2023-02-14T15:18:22.359Z,6.67
2023-02-14T15:20:50.953Z,6.48
2023-02-14T15:23:21.599Z,6.39
2023-02-14T15:25:50.423Z,6.34
2023-02-14T15:28:29.424Z,6.27
2023-02-14T15:31:00.154Z,6.14
2023-02-14T15:33:31.461Z,5.99
2023-02-14T15:36:02.965Z,5.90
2023-02-14T15:38:32.051Z,5.89
2023-02-14T15:41:01.370Z,5.80
2023-02-14T15:43:32.380Z,5.77
2023-02-14T15:46:14.206Z,5.71
2023-02-14T15:48:43.989Z,5.63
2023-02-14T15:51:18.637Z,5.55
2023-02-14T15:53:52.628Z,5.50
2023-02-14T15:56:24.663Z,5.47
2023-02-14T15:58:58.669Z,5.38
2023-02-14T16:01:26.988Z,5.30
2023-02-14T16:03:59.602Z,5.17
2023-02-14T16:06:34.014Z,5.11
2023-02-14T16:09:03.062Z,4.99
2023-02-14T16:11:32.498Z,4.85
2023-02-14T16:14:20.160Z,4.74
2023-02-14T16:17:00.183Z,4.64
2023-02-14T16:19:39.255Z,4.48
2023-02-14T16:22:08.038Z,4.42
2023-02-14T16:24:37.814Z,4.36
2023-02-14T16:27:07.820Z,4.31
2023-02-14T16:29:37.312Z,4.24
2023-02-14T16:32:18.075Z,4.15
2023-02-14T16:34:48.120Z,4.07
2023-02-14T16:37:22.091Z,3.95
2023-02-14T16:39:50.712Z,3.87
2023-02-14T16:42:19.218Z,3.82
2023-02-14T16:44:47.494Z,3.77
2023-02-14T16:47:18.048Z,3.74
2023-02-14T16:49:46.286Z,3.69
2023-02-14T16:52:15.850Z,3.68
2023-02-14T16:54:43.728Z,3.62
2023-02-14T16:57:19.015Z,3.57
2023-02-14T16:59:47.028Z,3.53
2023-02-14T17:02:18.306Z,3.48
2023-02-14T17:04:46.184Z,3.45
2023-02-14T17:07:16.487Z,3.43
2023-02-14T17:09:48.457Z,3.35
2023-02-14T17:12:20.518Z,3.34
2023-02-14T17:14:50.639Z,3.29
2023-02-14T17:17:19.789Z,3.25
2023-02-14T17:19:47.562Z,3.23
2023-02-14T17:22:15.893Z,3.19
2023-02-14T17:24:43.467Z,3.17
2023-02-14T17:27:11.222Z,3.14
2023-02-14T17:29:39.074Z,3.12
2023-02-14T17:32:06.797Z,3.07
2023-02-14T17:34:35.911Z,3.06
2023-02-14T17:37:04.082Z,3.03
2023-02-14T17:39:32.067Z,3.01
2023-02-14T17:41:59.714Z,2.96
2023-02-14T17:44:29.525Z,2.95
2023-02-14T17:46:57.925Z,2.93
2023-02-14T17:49:25.631Z,2.92
2023-02-14T17:51:54.645Z,2.91
2023-02-14T17:54:22.250Z,2.88
2023-02-14T17:56:49.999Z,2.88
2023-02-14T17:59:17.611Z,2.85
2023-02-14T18:01:45.287Z,2.84
2023-02-14T18:04:13.301Z,2.79
2023-02-14T18:06:42.768Z,2.76
2023-02-14T18:09:11.761Z,2.77
2023-02-14T18:11:42.280Z,2.73
2023-02-14T18:14:09.968Z,2.72
2023-02-14T18:16:38.843Z,2.67
2023-02-14T18:19:08.524Z,2.66
2023-02-14T18:21:39.992Z,2.64
2023-02-14T18:24:08.593Z,2.60
2023-02-14T18:26:39.086Z,2.59
2023-02-14T18:29:08.180Z,2.58
2023-02-14T18:31:37.536Z,2.55
2023-02-14T18:34:05.604Z,2.53
2023-02-14T18:36:35.711Z,2.52
2023-02-14T18:39:03.825Z,2.50
2023-02-14T18:41:32.001Z,2.49
2023-02-14T18:44:01.856Z,2.45
2023-02-14T18:46:34.206Z,2.42
2023-02-14T18:49:02.884Z,2.39
2023-02-14T18:51:32.877Z,2.39
2023-02-14T18:54:02.042Z,2.37
2023-02-14T18:56:31.443Z,2.32
2023-02-14T18:59:01.877Z,2.32
2023-02-14T19:01:31.817Z,2.29
2023-02-14T19:04:01.127Z,2.28
2023-02-14T19:06:31.296Z,2.26
2023-02-14T19:08:58.975Z,2.23
2023-02-14T19:11:28.635Z,2.22
2023-02-14T19:13:58.547Z,2.21
2023-02-14T19:16:29.810Z,2.20
2023-02-14T19:18:59.000Z,2.20
2023-02-14T19:21:30.351Z,2.18
2023-02-14T19:23:59.024Z,2.14
2023-02-14T19:26:30.065Z,2.15
2023-02-14T19:28:59.572Z,2.14
2023-02-14T19:31:28.804Z,2.14
2023-02-14T19:33:56.512Z,2.14
2023-02-14T19:36:25.039Z,2.13
2023-02-14T19:38:54.250Z,2.12
2023-02-14T19:41:24.497Z,2.11
2023-02-14T19:43:52.663Z,2.09
2023-02-14T19:46:22.670Z,2.07
2023-02-14T19:48:52.388Z,2.07
2023-02-14T19:51:22.993Z,2.04
2023-02-14T19:53:51.172Z,1.98
2023-02-14T19:56:21.327Z,1.97
2023-02-14T19:58:49.555Z,1.93
2023-02-14T20:01:25.568Z,1.90
2023-02-14T20:03:58.047Z,1.87
2023-02-14T20:06:27.309Z,1.84
2023-02-14T20:08:54.935Z,1.82
2023-02-14T20:11:30.470Z,1.83
2023-02-14T20:13:59.362Z,1.82
2023-02-14T20:16:29.358Z,1.77
2023-02-14T20:18:59.100Z,1.74
2023-02-14T20:21:28.323Z,1.71
2023-02-14T20:23:57.426Z,1.67
2023-02-14T20:26:25.646Z,1.63
2023-02-14T20:28:55.491Z,1.59
2023-02-14T20:31:24.018Z,1.58
2023-02-14T20:33:52.807Z,1.57
2023-02-14T20:36:22.341Z,1.58
2023-02-14T20:38:55.797Z,1.59
2023-02-14T20:41:23.485Z,1.57
2023-02-14T20:43:51.259Z,1.58
2023-02-14T20:46:19.073Z,1.57
2023-02-14T20:48:46.731Z,1.58
2023-02-14T20:51:16.615Z,1.58
2023-02-14T20:53:49.159Z,1.56
2023-02-14T20:56:18.136Z,1.57
2023-02-14T20:58:45.972Z,1.58
2023-02-14T21:01:15.713Z,1.56
2023-02-14T21:03:46.569Z,1.55
2023-02-14T21:06:16.680Z,1.53
2023-02-14T21:08:46.126Z,1.51
2023-02-14T21:11:17.557Z,1.49
2023-02-14T21:13:45.328Z,1.47
2023-02-14T21:16:15.819Z,1.47
2023-02-14T21:18:47.834Z,1.46
2023-02-14T21:21:19.053Z,1.47
2023-02-14T21:23:49.401Z,1.47
2023-02-14T21:26:17.326Z,1.45
2023-02-14T21:28:45.137Z,1.44
2023-02-14T21:31:14.928Z,1.44
2023-02-14T21:33:42.594Z,1.42
2023-02-14T21:36:12.300Z,1.39
2023-02-14T21:38:40.305Z,1.36
2023-02-14T21:41:14.978Z,1.35
2023-02-14T21:43:45.014Z,1.35
2023-02-14T21:46:14.395Z,1.31
2023-02-14T21:48:59.981Z,1.28
2023-02-14T21:51:28.359Z,1.25
2023-02-14T21:53:56.731Z,1.23
2023-02-14T21:56:25.651Z,1.23
2023-02-14T21:58:55.081Z,1.22
2023-02-14T22:01:24.373Z,1.22
2023-02-14T22:03:52.593Z,1.22
2023-02-14T22:06:20.710Z,1.23
2023-02-14T22:08:51.970Z,1.19
2023-02-14T22:11:20.186Z,1.15
2023-02-14T22:13:49.160Z,1.13
2023-02-14T22:16:19.454Z,1.11
2023-02-14T22:18:47.979Z,1.06
2023-02-14T22:21:19.707Z,1.07
2023-02-14T22:23:47.666Z,1.03
2023-02-14T22:26:18.084Z,1.01
2023-02-14T22:28:48.837Z,1.00
2023-02-14T22:31:19.860Z,1.00
2023-02-14T22:33:48.122Z,0.98
2023-02-14T22:36:16.513Z,0.98
2023-02-14T22:38:44.755Z,0.97
2023-02-14T22:41:14.222Z,0.95
2023-02-14T22:43:42.885Z,0.95
2023-02-14T22:46:12.975Z,0.95
2023-02-14T22:48:42.343Z,0.94
2023-02-14T22:51:12.599Z,0.93
2023-02-14T22:53:40.350Z,0.94
2023-02-14T22:56:12.882Z,0.91
2023-02-14T22:58:41.038Z,0.89
2023-02-14T23:01:13.955Z,0.89
2023-02-14T23:03:43.371Z,0.88
2023-02-14T23:06:11.850Z,0.87
2023-02-14T23:08:40.230Z,0.81
2023-02-14T23:11:09.612Z,0.74
2023-02-14T23:13:55.792Z,0.68
2023-02-14T23:16:40.766Z,0.57
2023-02-14T23:19:30.823Z,0.47
2023-02-14T23:21:59.231Z,0.36
2023-02-14T23:24:26.852Z,0.26
2023-02-14T23:26:56.155Z,0.24
2023-02-14T23:29:23.892Z,0.23
2023-02-14T23:31:51.762Z,0.24
2023-02-14T23:34:21.190Z,0.30
2023-02-14T23:36:48.854Z,0.34
2023-02-14T23:39:16.459Z,0.35
2023-02-14T23:41:49.181Z,0.45
2023-02-14T23:44:21.345Z,0.47
2023-02-14T23:46:50.057Z,0.45
2023-02-14T23:49:17.978Z,0.42
2023-02-14T23:51:48.754Z,0.39
2023-02-14T23:54:17.285Z,0.36
2023-02-14T23:56:45.838Z,0.34
2023-02-14T23:59:14.625Z,0.31
